Home > Products > Valid Products > TAF

000
FTUS41 KILN 011100
TAFLCK
TAF
KLCK 011127Z 0112/0212 18004KT 5SM BR OVC008
     FM011400 21007KT P6SM BKN012 OVC025
     FM011600 22009KT P6SM BKN025
     FM011800 22014G22KT P6SM SCT035
     FM020500 21006KT P6SM VCSH BKN040
     FM021000 22008KT P6SM VCTS BKN040CB=



000
FTUS41 KILN 011100
TAFCMH
TAF
KCMH 011127Z 0112/0212 18004KT P6SM OVC008
     FM011400 21007KT P6SM BKN012 OVC025
     FM011600 21009KT P6SM BKN025
     FM011800 22014G22KT P6SM SCT035
     FM020400 21006KT P6SM VCSH BKN030
     FM021000 22008KT P6SM VCTS BKN040CB=



000
FTUS41 KILN 011100
TAFLUK
TAF
KLUK 011127Z 0112/0212 21003KT P6SM VCSH OVC018
     FM011500 21009KT P6SM BKN022
     FM011700 21012G20KT P6SM SCT040
     FM020400 20005KT P6SM VCSH BKN040
     FM021000 22008KT P6SM VCTS BKN030CB=



000
FTUS41 KILN 011100
TAFDAY
TAF
KDAY 011127Z 0112/0212 21006KT 5SM BR OVC005
     FM011300 21008KT P6SM OVC008
     FM011400 21010KT P6SM BKN015
     FM011600 21015G23KT P6SM SCT030
     FM020500 21008KT P6SM VCSH BKN050
     FM020900 22008KT P6SM VCTS BKN040CB=



000
FTUS41 KILN 011100
TAFILN
TAF
KILN 011127Z 0112/0212 20005KT 5SM BR VCSH OVC008
     FM011300 21008KT P6SM SCT008 OVC015
     FM011600 21011KT P6SM BKN025
     FM011800 21014G22KT P6SM SCT030
     FM020600 21007KT P6SM VCSH BKN040
     FM021000 22007KT P6SM VCTS BKN040CB=



000
FTUS41 KILN 011100
TAFCVG
TAF
KCVG 011127Z 0112/0218 20007KT P6SM VCSH OVC012
      TEMPO 0112/0114 BKN008
     FM011400 22009KT P6SM BKN025
     FM011700 21011G20KT P6SM SCT035
     FM020000 19008KT P6SM SCT150 BKN250
     FM020600 20005KT P6SM VCSH BKN040
     FM021000 22008KT P6SM VCTS BKN030CB=



000
FTUS41 KILN 011000 AAB
TAFDAY
TAF AMD
KDAY 011005Z 0110/0206 21006KT 5SM BR OVC008
      TEMPO 0110/0113 3SM BR OVC003
     FM011400 21010KT P6SM BKN015
     FM011700 21015G23KT P6SM SCT030
     FM020100 21008KT P6SM VCSH BKN040=



000
FTUS41 KILN 010900 AAA
TAFILN
TAF AMD
KILN 010948Z 0110/0206 20005KT 4SM BR VCSH OVC004
      TEMPO 0110/0112 2SM BR VV002
     FM011400 21008KT 4SM BR BKN012
     FM011600 21011KT P6SM BKN025
     FM011800 21014G22KT P6SM SCT030
     FM020300 21007KT P6SM VCSH BKN030=



000
FTUS41 KILN 010900 AAB
TAFCVG
TAF AMD
KCVG 010927Z 0109/0212 20005KT P6SM BKN007 OVC012
     FM011100 20006KT 5SM BR VCSH BKN008 OVC012
     FM011400 22009KT P6SM BKN025
     FM011700 21011G20KT P6SM SCT035
     FM020000 19008KT P6SM SCT150 BKN250
     FM020600 20005KT P6SM VCSH BKN040=



000
FTUS41 KILN 010900 AAA
TAFCVG
TAF AMD
KCVG 010916Z 0109/0212 20005KT P6SM SCT009 OVC012
     FM011100 20006KT 5SM BR VCSH OVC012
     FM011400 22009KT P6SM BKN025
     FM011700 21011G20KT P6SM SCT035
     FM020000 19008KT P6SM SCT150 BKN250
     FM020600 20005KT P6SM VCSH BKN040=



000
FTUS41 KILN 010900 AAC
TAFLUK
TAF AMD
KLUK 010916Z 0109/0206 20003KT P6SM BKN014
     FM011100 21003KT P6SM VCSH OVC012
     FM011400 21005KT 5SM BR BKN015
     FM011500 21009KT P6SM BKN022
     FM011700 21012G20KT P6SM SCT040
     FM020400 20005KT P6SM VCSH BKN040=



000
FTUS41 KILN 010800 AAB
TAFLUK
TAF AMD
KLUK 010845Z 0109/0206 20003KT P6SM BKN014
      TEMPO 0109/0111 3SM BR BKN008
     FM011200 21003KT P6SM VCSH OVC012
     FM011400 21005KT 5SM BR BKN015
     FM011500 21009KT P6SM BKN022
     FM011700 21012G20KT P6SM SCT040
     FM020400 20005KT P6SM VCSH BKN040=



000
FTUS41 KILN 010800 AAA
TAFDAY
TAF AMD
KDAY 010802Z 0108/0206 20006KT P6SM BKN005
     FM011000 21006KT 4SM BR OVC008
     FM011400 21010KT P6SM BKN015
     FM011700 21015G23KT P6SM SCT030
     FM020100 21008KT P6SM VCSH BKN040=



000
FTUS41 KILN 010700 AAA
TAFLCK
TAF AMD
KLCK 010750Z 0108/0206 20003KT P6SM BKN006
     FM010900 19003KT 4SM BR BKN008 OVC015
     FM011400 21007KT P6SM BKN012 OVC025
     FM011600 22009KT P6SM BKN025
     FM011800 22014G22KT P6SM SCT035
     FM020500 21006KT P6SM VCSH BKN030=



000
FTUS41 KILN 010700 AAA
TAFLUK
TAF AMD
KLUK 010714Z 0107/0206 20003KT P6SM BKN010
      TEMPO 0107/0111 3SM BR BKN007
     FM011100 21003KT 3SM BR VCSH OVC012
     FM011400 21005KT 5SM BR BKN015
     FM011500 21009KT P6SM BKN022
     FM011700 21012G20KT P6SM SCT040
     FM020400 20005KT P6SM VCSH BKN040=



000
FTUS41 KILN 010700 AAA
TAFCMH
TAF AMD
KCMH 010700Z 0107/0206 18004KT P6SM BKN006
     FM010900 19004KT 5SM BR BKN007 OVC015
     FM011400 21007KT P6SM BKN012 OVC025
     FM011600 21009KT P6SM BKN025
     FM011800 22014G22KT P6SM SCT035
     FM020400 21006KT P6SM VCSH BKN030=



000
FTUS41 KILN 010600 AAA
TAFILN
TAF AMD
KILN 010649Z 0107/0206 20005KT 4SM BR OVC004
      TEMPO 0107/0111 2SM BR VV002
     FM011400 21008KT 4SM BR BKN012
     FM011600 21011KT P6SM BKN025
     FM011800 21014G22KT P6SM SCT030
     FM020300 21007KT P6SM VCSH BKN030=



000
FTUS41 KILN 010500 RRA
TAFLUK
TAF
KLUK 010541Z 0106/0206 20003KT 5SM BR BKN008
      TEMPO 0106/0110 3SM BR BKN005
     FM011000 21003KT 3SM BR VCSH OVC012
     FM011400 21005KT 5SM BR BKN015
     FM011500 21009KT P6SM BKN022
     FM011700 21012G20KT P6SM SCT040
     FM020200 20005KT P6SM BKN040=



000
FTUS41 KILN 010500 RRA
TAFCMH
TAF
KCMH 010541Z 0106/0206 18004KT P6SM BKN008
     FM010900 19004KT 5SM BR BKN007 OVC015
     FM011400 21007KT P6SM BKN012 OVC025
     FM011600 21009KT P6SM BKN025
     FM011800 22014G22KT P6SM SCT035
     FM020200 21006KT P6SM VCSH BKN030=



000
FTUS41 KILN 010500 RRA
TAFCVG
TAF
KCVG 010541Z 0106/0212 20005KT P6SM SCT006 OVC012
      TEMPO 0106/0110 BKN006
     FM011100 20006KT 5SM BR VCSH OVC012
     FM011400 22009KT P6SM BKN025
     FM011700 21011G20KT P6SM SCT035
     FM020000 19008KT P6SM SCT150 BKN250
     FM020600 20005KT P6SM VCSH BKN040=



000
FTUS41 KILN 010500 RRA
TAFILN
TAF
KILN 010541Z 0106/0206 20005KT 1 1/2SM BR OVC004
      TEMPO 0106/0110 1/2SM FG VV002
     FM011400 21008KT 4SM BR BKN012
     FM011600 21011KT P6SM BKN025
     FM011800 21014G22KT P6SM SCT030
     FM020300 21007KT P6SM VCSH BKN030=



000
FTUS41 KILN 010500 RRA
TAFDAY
TAF
KDAY 010541Z 0106/0206 20006KT P6SM SCT035
     FM010800 20006KT 4SM BR BKN012
     FM011000 21006KT 4SM BR OVC008
     FM011400 21010KT P6SM BKN015
     FM011700 21015G23KT P6SM SCT030
     FM020100 21008KT P6SM VCSH BKN040=



000
FTUS41 KILN 010500 RRA
TAFLCK
TAF
KLCK 010541Z 0106/0206 20003KT P6SM BKN010
     FM010900 19003KT 4SM BR BKN008 OVC015
     FM011400 21007KT P6SM BKN012 OVC025
     FM011600 22009KT P6SM BKN025
     FM011800 22014G22KT P6SM SCT035
     FM020200 21006KT P6SM VCSH BKN030=



000
FTUS41 KILN 010400 AAB
TAFCMH
TAF AMD
KCMH 010454Z 0105/0124 19004KT P6SM BKN008
     FM010600 18004KT 5SM BR BKN010
     FM010900 19004KT 5SM BR BKN008 OVC015
     FM011400 21007KT P6SM BKN012 OVC025
     FM011600 21009KT P6SM BKN025
     FM011800 22014G22KT P6SM SCT035=



000
FTUS41 KILN 010400 AAA
TAFCMH
TAF AMD
KCMH 010426Z 0104/0124 19004KT P6SM SCT020
     FM010600 18004KT 5SM BR BKN018
     FM010900 19004KT 5SM BR BKN008 OVC015
     FM011400 21007KT P6SM BKN012 OVC025
     FM011600 21009KT P6SM BKN025
     FM011800 22014G22KT P6SM SCT035=



000
FTUS41 KILN 010400 AAA
TAFLCK
TAF AMD
KLCK 010424Z 0104/0124 20003KT P6SM SCT020
     FM010600 20003KT 4SM BR BKN018
     FM010900 19003KT 4SM BR BKN008 OVC015
     FM011400 21007KT P6SM BKN012 OVC025
     FM011600 22009KT P6SM BKN025
     FM011800 22014G22KT P6SM SCT035=



000
FTUS41 KILN 010400 AAA
TAFILN
TAF AMD
KILN 010423Z 0104/0124 21005KT 2SM BR OVC002
     FM010600 20005KT 1 1/2SM BR OVC004
      TEMPO 0108/0112 1/2SM FG VV002
     FM011400 21008KT 4SM BR BKN012
     FM011600 21011KT P6SM BKN025
     FM011800 21014G22KT P6SM SCT030=



000
FTUS41 KILN 312300
TAFDAY
TAF
KDAY 312333Z 0100/0124 21007KT P6SM FEW035
     FM010600 20006KT 5SM BR FEW020
     FM010800 20006KT 4SM BR BKN012
     FM011000 21006KT 4SM BR OVC008
     FM011400 21010KT P6SM BKN015
     FM011700 21015G23KT P6SM SCT030=



000
FTUS41 KILN 312300
TAFCMH
TAF
KCMH 312333Z 0100/0124 19005KT P6SM SCT030 BKN250
     FM010400 19004KT 5SM BR SCT020
     FM010600 18004KT 5SM BR BKN018
     FM010900 19004KT 5SM BR BKN008 OVC015
     FM011400 21007KT P6SM BKN012 OVC025
     FM011600 21009KT P6SM BKN025
     FM011800 22014G22KT P6SM SCT035=



000
FTUS41 KILN 312300
TAFCVG
TAF
KCVG 312333Z 0100/0206 20005KT P6SM SCT025 BKN250
     FM010600 19005KT 5SM BR OVC012
     FM011100 20006KT 5SM BR VCSH OVC012
     FM011400 22009KT P6SM BKN025
     FM011700 21011G20KT P6SM SCT035
     FM020000 19008KT P6SM SCT150 BKN250=



000
FTUS41 KILN 312300
TAFILN
TAF
KILN 312333Z 0100/0124 19005KT P6SM FEW030
     FM010400 21005KT 5SM BR BKN015
     FM010600 20005KT 2SM BR OVC006
     FM011400 21008KT 4SM BR BKN012
     FM011600 21011KT P6SM BKN025
     FM011800 21014G22KT P6SM SCT030=



000
FTUS41 KILN 312300
TAFLUK
TAF
KLUK 312333Z 0100/0124 21007KT P6SM SCT030 BKN250
     FM010600 20003KT 5SM BR OVC015
     FM011000 21003KT 2SM BR VCSH OVC012
     FM011400 21005KT 5SM BR BKN015
     FM011500 21009KT P6SM BKN022
     FM011700 21012G20KT P6SM SCT040=



000
FTUS41 KILN 312300
TAFLCK
TAF
KLCK 312333Z 0100/0124 20004KT P6SM SCT030 BKN250
     FM010400 20003KT 5SM BR SCT020
     FM010600 20003KT 4SM BR BKN018
     FM010900 19003KT 4SM BR BKN008 OVC015
     FM011400 21007KT P6SM BKN012 OVC025
     FM011600 22009KT P6SM BKN025
     FM011800 22014G22KT P6SM SCT035=



000
FTUS41 KILN 312200 AAA
TAFILN
TAF AMD
KILN 312211Z 3122/0118 19007KT P6SM SCT035 BKN250
     FM010400 20005KT 5SM BR OVC015
     FM010600 21005KT 2SM BR OVC008
     FM010900 21005KT 1SM -SHRA BR OVC008
     FM011400 21008KT 3SM -SHRA BR OVC012
     FM011600 21011G19KT P6SM BKN025=



000
FTUS41 KILN 312100 AAA
TAFCMH
TAF AMD
KCMH 312121Z 3121/0118 20008KT P6SM VCSH BKN035
     FM010000 19005KT P6SM BKN040
     FM010300 19005KT 5SM BR OVC015
     FM010600 19004KT 2SM BR VCSH OVC012
     FM011200 19006KT 3SM -SHRA BR OVC008
     FM011600 20010KT P6SM VCSH BKN018
     FM011700 21010G18KT P6SM BKN025=



000
FTUS41 KILN 312100 AAA
TAFLCK
TAF AMD
KLCK 312121Z 3121/0118 20008KT P6SM VCSH BKN035
     FM010000 19005KT P6SM BKN040
     FM010300 19004KT 5SM BR OVC015
     FM010600 19004KT 2SM BR VCSH OVC012
     FM011200 19006KT 3SM -SHRA BR OVC008
     FM011600 20010KT P6SM VCSH BKN018
     FM011700 21010G18KT P6SM BKN025=



000
FTUS41 KILN 312100 AAA
TAFDAY
TAF AMD
KDAY 312117Z 3121/0118 21007KT P6SM BKN035
     FM010600 20007KT 5SM BR VCSH OVC012
     FM011000 21006KT 3SM -SHRA BR OVC008
     FM011400 21010KT P6SM BKN018
     FM011700 21011G19KT P6SM BKN025=



000
FTUS41 KILN 312100 AAA
TAFLUK
TAF AMD
KLUK 312101Z 3121/0118 21007KT P6SM SCT028 BKN250
      TEMPO 3121/3123 BKN025
     FM010600 20003KT 5SM BR VCSH OVC012
     FM010900 21003KT 1SM BR VCSH OVC012
     FM011300 21005KT 3SM BR VCSH OVC018
     FM011500 21009KT P6SM BKN022
     FM011700 21011G19KT P6SM SCT040=



000
FTUS41 KILN 312100 AAA
TAFCVG
TAF AMD
KCVG 312101Z 3121/0124 21006KT P6SM SCT025 BKN250
      TEMPO 3121/3123 BKN025
     FM010600 20005KT 5SM BR VCSH OVC012
     FM011400 22009KT P6SM BKN018
     FM011700 21011G19KT P6SM SCT040=



000
FTUS41 KILN 311800 AAA
TAFILN
TAF AMD
KILN 311845Z 3119/0118 20010KT P6SM VCSH OVC035
     FM312100 20008KT P6SM VCSH OVC025
     FM010300 20005KT 5SM BR OVC015
     FM010600 21005KT 2SM BR OVC008
     FM010900 21005KT 1SM -SHRA BR OVC008
     FM011400 21008KT 3SM -SHRA BR OVC012
     FM011600 21011G19KT P6SM BKN025=



000
FTUS41 KILN 311700
TAFILN
TAF
KILN 311740Z 3118/0118 20010KT P6SM VCSH OVC025
      TEMPO 3119/3122 -SHRA OVC015
     FM010300 20005KT 5SM BR OVC015
     FM010600 21005KT 2SM BR OVC008
     FM010900 21005KT 1SM -SHRA BR OVC008
     FM011400 21008KT 3SM -SHRA BR OVC012
     FM011600 21011G19KT P6SM BKN025=



000
FTUS41 KILN 311700
TAFDAY
TAF
KDAY 311740Z 3118/0118 22008KT P6SM -SHRA OVC015
     FM311900 21008KT P6SM -SHRA OVC025
     FM010000 20006KT P6SM VCSH BKN025
     FM010600 20007KT 5SM BR VCSH OVC012
     FM011000 21006KT 3SM -SHRA BR OVC008
     FM011400 21010KT P6SM BKN018
     FM011700 21011G19KT P6SM BKN025=



000
FTUS41 KILN 311700
TAFLUK
TAF
KLUK 311740Z 3118/0118 20008KT P6SM VCSH SCT015 OVC022
     FM312300 21004KT P6SM SCT020 BKN250
     FM010600 20003KT 5SM BR VCSH OVC012
     FM010900 21003KT 1SM BR VCSH OVC012
     FM011300 21005KT 3SM BR VCSH OVC018
     FM011500 21009KT P6SM BKN022
     FM011700 21011G19KT P6SM SCT040=



000
FTUS41 KILN 311700
TAFLCK
TAF
KLCK 311740Z 3118/0118 20010KT P6SM -SHRA OVC015
     FM312100 20010KT P6SM -SHRA OVC025
     FM010000 19005KT P6SM BKN025
     FM010300 19004KT 5SM BR OVC015
     FM010600 19004KT 2SM BR VCSH OVC012
     FM011200 19006KT 3SM -SHRA BR OVC008
     FM011600 20010KT P6SM VCSH BKN018
     FM011700 21010G18KT P6SM BKN025=



000
FTUS41 KILN 311700
TAFCVG
TAF
KCVG 311740Z 3118/0124 20008KT P6SM VCSH SCT015 OVC022
     FM312300 21005KT P6SM SCT020 BKN250
     FM010600 20005KT 5SM BR VCSH OVC012
     FM011400 22009KT P6SM BKN018
     FM011700 21011G19KT P6SM SCT040=



000
FTUS41 KILN 311700
TAFCMH
TAF
KCMH 311740Z 3118/0118 19009KT P6SM -SHRA OVC015
     FM312100 20009KT P6SM -SHRA OVC025
     FM010000 19005KT P6SM BKN025
     FM010300 19005KT 5SM BR OVC015
     FM010600 19004KT 2SM BR VCSH OVC012
     FM011200 19006KT 3SM -SHRA BR OVC008
     FM011600 20010KT P6SM VCSH BKN018
     FM011700 21010G18KT P6SM BKN025=



000
FTUS41 KILN 311600 AAB
TAFILN
TAF AMD
KILN 311609Z 3116/0112 20010KT 3SM -SHRA SCT009 OVC015
      TEMPO 3116/3117 1SM SHRA
     FM311700 20008KT P6SM -SHRA BKN015
     FM311800 20010KT P6SM VCTS BKN025CB
     FM312300 18006KT P6SM BKN050
     FM010700 21006KT 4SM BR BKN050
     FM011000 21005KT 2SM BR OVC015=



000
FTUS41 KILN 311400 AAA
TAFCVG
TAF AMD
KCVG 311456Z 3115/0118 20008KT P6SM -SHRA OVC015
      TEMPO 3115/3117 4SM -SHRA OVC007
     FM311700 21007KT P6SM -SHRA OVC009
     FM311800 21008KT P6SM VCTS OVC015CB
     FM312100 21007KT P6SM VCTS OVC025CB
     FM312300 21005KT P6SM OVC100
     FM010900 21005KT 5SM BR BKN015
     FM011500 22007KT P6SM BKN025=



000
FTUS41 KILN 311400 AAA
TAFILN
TAF AMD
KILN 311454Z 3115/0112 20010KT 3SM -SHRA BR BKN009 OVC015
      TEMPO 3115/3116 1 1/2SM SHRA
     FM311600 20008KT P6SM -SHRA BKN015
     FM311800 20010KT P6SM VCTS BKN025CB
     FM312300 18006KT P6SM BKN050
     FM010700 21006KT 4SM BR BKN050
     FM011000 21005KT 2SM BR OVC015=



000
FTUS41 KILN 311300 AAA
TAFLCK
TAF AMD
KLCK 311400Z 3114/0112 18006KT 3SM -SHRA BR SCT007 OVC012
      TEMPO 3114/3116 1 1/2SM SHRA BKN007
     FM311800 20010KT P6SM VCTS OVC015CB
     FM312100 20009KT P6SM VCTS OVC025CB
     FM010100 19006KT P6SM BKN050
     FM010900 21004KT 3SM BR OVC015=



000
FTUS41 KILN 311300 AAA
TAFCMH
TAF AMD
KCMH 311357Z 3114/0112 18008KT 3SM -SHRA OVC015
      TEMPO 3114/3116 1 1/2SM SHRA BKN008
     FM311600 20009KT P6SM -SHRA OVC012
     FM311800 20010KT P6SM VCTS OVC015CB
     FM312100 20009KT P6SM VCTS OVC025CB
     FM010100 19006KT P6SM BKN050
     FM011000 21004KT 5SM BR OVC015=



000
FTUS41 KILN 311100
TAFILN
TAF
KILN 311138Z 3112/0112 20006KT 3SM -SHRA BR OVC007
      TEMPO 3112/3114 2SM -SHRA
     FM311500 20008KT P6SM -SHRA BKN015
     FM311800 20010KT P6SM VCTS BKN025CB
     FM312300 18006KT P6SM BKN050
     FM010700 21006KT 4SM BR BKN050
     FM011000 21005KT 2SM BR OVC015=



000
FTUS41 KILN 311100
TAFCMH
TAF
KCMH 311138Z 3112/0112 18006KT 3SM -SHRA BR BKN007 OVC012
     FM311500 20009KT P6SM -SHRA OVC012
     FM311800 20010KT P6SM VCTS OVC015CB
     FM312100 20009KT P6SM VCTS OVC025CB
     FM010100 19006KT P6SM BKN050
     FM011000 21004KT 5SM BR OVC015=



000
FTUS41 KILN 311100
TAFLCK
TAF
KLCK 311138Z 3112/0112 18006KT 3SM -SHRA BR BKN007 OVC012
     FM311500 20009KT P6SM -SHRA OVC012
     FM311800 20010KT P6SM VCTS OVC015CB
     FM312100 20009KT P6SM VCTS OVC025CB
     FM010100 19006KT P6SM BKN050
     FM010900 21004KT 3SM BR OVC015=



000
FTUS41 KILN 311100
TAFLUK
TAF
KLUK 311138Z 3112/0112 19003KT 3SM -SHRA BR SCT008 OVC012
     FM311600 20005KT 3SM -SHRA OVC010
     FM311800 20007KT P6SM VCTS OVC015CB
     FM312100 21006KT P6SM VCTS OVC025CB
     FM312300 00000KT P6SM OVC100
     FM010700 00000KT 3SM BR OVC015=



000
FTUS41 KILN 311100
TAFDAY
TAF
KDAY 311138Z 3112/0112 00000KT 2SM -SHRA BR BKN004 OVC012
     FM311300 21007KT 3SM -SHRA BR SCT008 OVC012
     FM311600 21008KT P6SM -SHRA OVC015
     FM311900 21009KT P6SM VCTS BKN025CB
     FM312300 20007KT P6SM BKN100
     FM011000 21006KT 5SM BR OVC015=



000
FTUS41 KILN 311100
TAFCVG
TAF
KCVG 311138Z 3112/0118 19007KT 3SM -SHRA BR OVC007
     FM311600 21007KT 4SM -SHRA OVC009
     FM311800 21008KT P6SM VCTS OVC015CB
     FM312100 21007KT P6SM VCTS OVC025CB
     FM312300 21005KT P6SM OVC100
     FM010900 21005KT 5SM BR BKN015
     FM011500 22007KT P6SM BKN025=



000
FTUS41 KILN 310900 AAA
TAFLCK
TAF AMD
KLCK 310945Z 3110/0106 18004KT 4SM -SHRA BR BKN014 OVC020
     FM311100 18006KT 3SM -SHRA BR OVC005
     FM311600 20009KT 4SM HZ VCTS OVC008CB
     FM311800 20010KT P6SM VCTS OVC013CB
     FM312100 20009KT P6SM VCTS OVC020CB
     FM010100 19006KT P6SM BKN025=



000
FTUS41 KILN 310900 AAA
TAFCMH
TAF AMD
KCMH 310943Z 3110/0106 18004KT 4SM -SHRA BR BKN012 OVC100
     FM311100 18006KT 3SM -SHRA BR OVC005
     FM311600 20009KT 4SM HZ VCTS OVC008CB
     FM311800 20010KT P6SM VCTS OVC015CB
     FM312100 20009KT P6SM VCTS OVC025CB
     FM010100 19006KT P6SM BKN030=



000
FTUS41 KILN 310900 AAC
TAFCVG
TAF AMD
KCVG 310937Z 3110/0112 19005KT 2SM -SHRA BR OVC005
     FM311600 21006KT 4SM -SHRA BR VCTS OVC009CB
     FM311800 21008KT P6SM VCTS OVC015CB
     FM312100 21007KT P6SM VCTS OVC025CB
     FM010100 21005KT P6SM OVC035
     FM010900 21005KT 5SM BR BKN015=



000
FTUS41 KILN 310900 AAA
TAFILN
TAF AMD
KILN 310934Z 3110/0106 18004KT 2SM -SHRA BR SCT012 OVC080
     FM311200 20006KT 2SM -SHRA BR OVC007
     FM311600 20008KT P6SM VCTS BKN015CB
     FM311800 20010KT P6SM VCTS BKN025CB
     FM312300 18006KT P6SM BKN030
     FM010300 21006KT 4SM BR BKN025=



000
FTUS41 KILN 310900 AAB
TAFDAY
TAF AMD
KDAY 310929Z 3109/0106 21007KT P6SM -SHRA VCTS SCT015 OVC040CB
      TEMPO 3109/3112 2SM SHRA BR BKN007
     FM311200 20007KT 2SM -SHRA BR OVC007
     FM311600 21008KT 5SM HZ VCTS OVC015CB
     FM311900 21009KT P6SM VCTS BKN025CB
     FM010100 20007KT P6SM BKN035=



000
FTUS41 KILN 310900 AAA
TAFLUK
TAF AMD
KLUK 310918Z 3109/0106 00000KT 2SM -SHRA BR SCT010 BKN100
      TEMPO 3109/3111 1SM SHRA BR OVC005
     FM311100 19003KT 1 1/2SM -SHRA BR OVC005
     FM311600 20005KT 2SM -SHRA BR VCTS OVC010CB
     FM311800 20007KT P6SM VCTS OVC015CB
     FM312100 21006KT P6SM VCTS OVC025CB
     FM010100 00000KT P6SM OVC035=



000
FTUS41 KILN 310900 AAB
TAFCVG
TAF AMD
KCVG 310911Z 3109/0112 19005KT 3SM -SHRA BR SCT005 BKN050
      TEMPO 3109/3111 2SM SHRA OVC005
     FM311100 18005KT 2SM -SHRA BR OVC005
     FM311600 21006KT 4SM -SHRA BR VCTS OVC009CB
     FM311800 21008KT P6SM VCTS OVC015CB
     FM312100 21007KT P6SM VCTS OVC025CB
     FM010100 21005KT P6SM OVC035
     FM010900 21005KT 5SM BR BKN015=



000
FTUS41 KILN 310900 AAA
TAFCVG
TAF AMD
KCVG 310908Z 3109/0112 19005KT 3SM -SHRA BR SCT005 BKN050
      TEMPO 3109/3113 2SM SHRA OVC005
     FM311300 18005KT 2SM -SHRA BR OVC006
     FM311600 21006KT 4SM -SHRA BR VCTS OVC009CB
     FM311800 21008KT P6SM VCTS OVC015CB
     FM312100 21007KT P6SM VCTS OVC025CB
     FM010100 21005KT P6SM OVC035
     FM010900 21005KT 5SM BR BKN015=



000
FTUS41 KILN 310800 AAA
TAFDAY
TAF AMD
KDAY 310831Z 3109/0106 21007KT P6SM -SHRA VCTS OVC040CB
      TEMPO 3109/3111 2SM SHRA BR BKN007
     FM311100 20008KT 4SM -SHRA BR OVC015
     FM311300 19007KT 5SM BR VCSH OVC008
     FM311600 21010KT P6SM BKN018 OVC030
     FM311800 21011KT P6SM VCTS BKN035CB=



000
FTUS41 KILN 310500
TAFLUK
TAF
KLUK 310532Z 3106/0106 00000KT 3SM -SHRA BR OVC040
     FM310900 19003KT 2SM -SHRA BR OVC020
     FM311200 19003KT 1 1/2SM -SHRA BR OVC015
     FM311300 19004KT 1 1/2SM -SHRA BR OVC009
     FM311500 20005KT 2SM -SHRA BR VCTS OVC009CB
     FM311700 20007KT P6SM VCTS BKN015CB
     FM312200 21006KT P6SM BKN035
     FM010300 00000KT 5SM BR BKN035=



000
FTUS41 KILN 310500
TAFDAY
TAF
KDAY 310532Z 3106/0106 21008KT P6SM VCSH BKN100
     FM310900 20008KT 4SM -SHRA BR OVC025
     FM311300 19007KT 5SM BR VCSH OVC008
     FM311600 21010KT P6SM BKN018 OVC030
     FM311800 21011KT P6SM VCTS BKN035CB=



000
FTUS41 KILN 310500
TAFCMH
TAF
KCMH 310532Z 3106/0106 22006KT P6SM -SHRA BKN070 OVC100
     FM310700 19006KT P6SM VCSH SCT050 BKN070
     FM311100 18006KT 4SM -SHRA BR OVC015
     FM311500 20009KT 5SM BR OVC015
     FM311800 20010KT P6SM VCTS BKN028CB
     FM312300 19006KT P6SM BKN035=



000
FTUS41 KILN 310500
TAFLCK
TAF
KLCK 310532Z 3106/0106 21006KT P6SM -SHRA SCT050 OVC080
     FM310700 20005KT 5SM BR VCSH SCT050 BKN070
     FM311100 19006KT 4SM -SHRA BR OVC012
     FM311500 20009KT 5SM BR OVC015
     FM311800 20010KT P6SM VCTS BKN028CB
     FM312300 19006KT P6SM BKN035=



000
FTUS41 KILN 310500
TAFILN
TAF
KILN 310532Z 3106/0106 21006KT 6SM -SHRA BR SCT040 OVC050
     FM310700 20006KT 3SM -SHRA BR OVC035
     FM311000 19006KT 2SM -SHRA BR OVC012
     FM311300 20006KT 5SM -SHRA BR OVC007
     FM311600 20008KT P6SM VCTS BKN015CB
     FM311800 20010KT P6SM VCTS BKN025CB
     FM312300 18006KT P6SM BKN035
     FM010300 21006KT 4SM BR BKN025=



000
FTUS41 KILN 310500
TAFCVG
TAF
KCVG 310532Z 3106/0112 19005KT 3SM -SHRA BR OVC040
     FM310900 18006KT 3SM -SHRA BR OVC025
     FM311200 18005KT 2SM -SHRA BR OVC015
     FM311400 20006KT 2SM -SHRA BR VCTS OVC007CB
     FM311800 21008KT P6SM VCTS OVC020CB
     FM312100 21006KT P6SM BKN035
     FM010600 21005KT 5SM BR BKN035
     FM011000 20005KT 4SM BR BKN015=



000
FTUS41 KILN 310400 AAA
TAFILN
TAF AMD
KILN 310401Z 3104/3124 21006KT 2SM -SHRA BR SCT050 OVC100
     FM310700 20006KT 2SM -SHRA BR OVC035
     FM311000 20006KT 1SM -SHRA BR OVC012
     FM311300 20006KT 5SM -SHRA BR OVC007
     FM311600 20009KT P6SM BKN015
     FM311800 20008KT P6SM BKN025=



000
FTUS41 KILN 310300 AAA
TAFCVG
TAF AMD
KCVG 310357Z 3104/0106 20006KT 4SM -SHRA BR SCT050 OVC100
     FM310600 18006KT 3SM -SHRA BR OVC040
     FM310900 19006KT 2SM -SHRA BR OVC012
     FM311300 19006KT 5SM BR VCSH OVC007
     FM311700 19008KT P6SM VCTS BKN025CB
     FM312100 21007KT P6SM BKN035
     FM010300 21004KT 5SM BR SCT010=



000
FTUS41 KILN 302300
TAFDAY
TAF
KDAY 302340Z 3100/3124 21009KT P6SM SCT050 OVC120
     FM310600 21009KT P6SM VCSH SCT020 OVC050
     FM310900 21007KT 4SM -SHRA BR OVC012
     FM311300 21008KT 5SM BR OVC008
     FM311600 21010KT P6SM BKN018 OVC050
     FM311800 21011KT P6SM BKN040=



000
FTUS41 KILN 302300
TAFLCK
TAF
KLCK 302340Z 3100/3124 22008KT P6SM SCT060 BKN200
     FM310100 21006KT P6SM -SHRA SCT050 OVC120
     FM310700 19006KT 3SM -SHRA BR SCT012 BKN050
     FM311100 20006KT 3SM -SHRA BR OVC012
     FM311500 20009KT 5SM BR OVC015
     FM311800 20010KT P6SM BKN028=



000
FTUS41 KILN 302300
TAFLUK
TAF
KLUK 302340Z 3100/3124 21004KT 6SM -SHRA BR SCT050 OVC100
     FM310600 20003KT 3SM -SHRA BR OVC040
     FM310900 20003KT 2SM -SHRA BR OVC012
     FM311300 19006KT 5SM BR VCSH OVC009
     FM311700 20007KT P6SM VCTS BKN028CB
     FM312100 21007KT P6SM BKN040=



000
FTUS41 KILN 302300
TAFCVG
TAF
KCVG 302340Z 3100/0106 20006KT 6SM -SHRA BR SCT050 OVC100
     FM310600 18006KT 3SM -SHRA BR OVC040
     FM310900 19006KT 2SM -SHRA BR OVC012
     FM311300 19006KT 5SM BR VCSH OVC007
     FM311700 19008KT P6SM VCTS BKN025CB
     FM312100 21007KT P6SM BKN035
     FM010300 21004KT 5SM BR SCT010=



000
FTUS41 KILN 302300
TAFCMH
TAF
KCMH 302340Z 3100/3124 22010KT P6SM SCT060 BKN200
     FM310100 21007KT P6SM -SHRA SCT050 OVC120
     FM310700 18007KT 3SM -SHRA BR SCT012 BKN050
     FM311100 20006KT 3SM -SHRA BR OVC012
     FM311500 20009KT 5SM BR OVC015
     FM311800 20010KT P6SM BKN028=



000
FTUS41 KILN 302300
TAFILN
TAF
KILN 302340Z 3100/3124 21006KT 6SM -SHRA BR SCT050 OVC100
     FM310700 20006KT 3SM -SHRA BR OVC035
     FM311000 20006KT 2SM -SHRA BR OVC012
     FM311300 20006KT 5SM -SHRA BR OVC007
     FM311600 20009KT P6SM BKN015
     FM311800 20008KT P6SM BKN025=



000
FTUS41 KILN 302200 AAA
TAFLCK
TAF AMD
KLCK 302211Z 3022/3118 22010KT P6SM SCT060 BKN200
     FM310100 21007KT P6SM -SHRA SCT050 OVC120
     FM310300 20007KT 3SM -SHRA BR SCT012 BKN050
     FM310900 19005KT 3SM -SHRA BR OVC012
     FM311400 20008KT P6SM VCSH OVC018
     FM311600 21010KT P6SM -SHRA VCTS BKN025CB=



000
FTUS41 KILN 302200 AAA
TAFCMH
TAF AMD
KCMH 302211Z 3022/3118 21011KT P6SM SCT060 BKN200
     FM310100 21007KT P6SM -SHRA SCT050 OVC120
     FM310300 19007KT 3SM -SHRA BR SCT012 BKN050
     FM310900 21006KT 3SM -SHRA BR OVC012
     FM311400 21008KT P6SM VCSH OVC018
     FM311600 21010KT P6SM -SHRA VCTS BKN025CB=



000
FTUS41 KILN 302100 AAA
TAFDAY
TAF AMD
KDAY 302112Z 3021/3118 22011KT P6SM SCT050 BKN200
     FM302300 21010KT P6SM VCSH SCT050 OVC120
     FM310300 22009KT P6SM SCT020 OVC050
     FM310700 21009KT 3SM -SHRA BR OVC012
     FM311200 21008KT 5SM BR VCSH OVC012
     FM311400 21010KT P6SM VCSH BKN018 OVC250
     FM311600 21011KT P6SM -SHRA VCTS BKN035CB=



000
FTUS41 KILN 302100 AAA
TAFILN
TAF AMD
KILN 302112Z 3021/3118 20011KT P6SM VCTS SCT040CB BKN200
     FM302200 21009KT P6SM -SHRA SCT040 OVC200
      TEMPO 3022/3024 5SM -TSRA BKN050CB
     FM310000 21006KT 5SM -SHRA BR BKN040 OVC090
     FM310300 22007KT P6SM VCSH SCT020 OVC040
     FM310700 21006KT 3SM -SHRA BR OVC008
     FM311200 21008KT 5SM BR VCSH OVC012
     FM311400 21010KT P6SM VCSH OVC018
     FM311600 21011KT P6SM -SHRA VCTS BKN025CB=



000
FTUS41 KILN 302100 AAA
TAFLUK
TAF AMD
KLUK 302104Z 3021/3118 21010KT P6SM -SHRA BKN070 OVC200
      TEMPO 3021/3023 4SM -TSRA BKN050CB
     FM302300 21005KT 5SM -SHRA BR BKN050 OVC090
     FM310300 20005KT 4SM -SHRA BR OVC015
     FM311300 20006KT P6SM -SHRA OVC018
     FM311700 19008KT P6SM -SHRA VCTS BKN025CB OVC150=



000
FTUS41 KILN 302100 AAA
TAFCVG
TAF AMD
KCVG 302104Z 3021/3124 22008KT P6SM -SHRA BKN070 OVC200
      TEMPO 3021/3023 4SM -TSRA BKN050CB
     FM302300 21007KT 5SM -SHRA BR BKN050 OVC090
     FM310300 20005KT 4SM -SHRA BR OVC012
     FM311300 19006KT P6SM VCSH OVC015
     FM311700 19008KT P6SM -SHRA VCTS BKN025CB OVC150
     FM312200 18005KT P6SM VCSH BKN035=



000
FTUS41 KILN 301700
TAFLCK
TAF
KLCK 301740Z 3018/3118 22012G20KT P6SM SCT060 BKN200
     FM302300 20010KT P6SM -SHRA VCTS SCT050CB OVC120
     FM310100 21007KT P6SM -SHRA SCT050 OVC120
     FM310300 20007KT 3SM -SHRA BR SCT012 BKN050
     FM310600 19005KT 3SM -SHRA BR OVC012
     FM311400 20008KT P6SM VCSH OVC018
     FM311600 21010KT P6SM -SHRA VCTS BKN025CB=



000
FTUS41 KILN 301700
TAFCMH
TAF
KCMH 301740Z 3018/3118 21012G20KT P6SM SCT060 BKN200
     FM302300 21011KT P6SM -SHRA VCTS SCT050CB OVC120
     FM310100 21007KT P6SM -SHRA SCT050 OVC120
     FM310300 19007KT 3SM -SHRA BR SCT012 BKN050
     FM310600 21006KT 3SM -SHRA BR OVC012
     FM311400 21008KT P6SM VCSH OVC018
     FM311600 21010KT P6SM -SHRA VCTS BKN025CB=



000
FTUS41 KILN 301700
TAFCVG
TAF
KCVG 301740Z 3018/3124 19012KT P6SM BKN060 OVC250
     FM302000 22010G18KT P6SM -SHRA VCTS BKN050CB OVC250
     FM302300 21005KT P6SM -SHRA OVC035
     FM310300 20005KT 4SM -SHRA BR OVC012
     FM311300 19006KT P6SM VCSH OVC015
     FM311700 19008KT P6SM -SHRA VCTS BKN025CB OVC150
     FM312200 18005KT P6SM VCSH BKN035=



000
FTUS41 KILN 301700
TAFILN
TAF
KILN 301740Z 3018/3118 20010G18KT P6SM FEW040 SCT120
     FM302100 21011G19KT P6SM -SHRA VCTS BKN050CB OVC120
     FM310000 21006KT P6SM -SHRA BKN050 OVC120
     FM310300 22006KT 3SM -SHRA BR OVC012
     FM310900 21006KT 3SM -SHRA BR OVC008
     FM311200 21008KT 5SM BR VCSH OVC012
     FM311400 21010KT P6SM VCSH OVC018
     FM311600 21011KT P6SM -SHRA VCTS BKN025CB=



000
FTUS41 KILN 301700
TAFLUK
TAF
KLUK 301740Z 3018/3118 21010G18KT P6SM BKN060 OVC250
     FM302000 21010G18KT P6SM -SHRA VCTS BKN050CB OVC250
     FM302300 21005KT P6SM -SHRA OVC035
     FM310300 20005KT 4SM -SHRA BR OVC015
     FM311300 20006KT P6SM -SHRA OVC018
     FM311700 19008KT P6SM -SHRA VCTS BKN025CB OVC150=



000
FTUS41 KILN 301700
TAFDAY
TAF
KDAY 301740Z 3018/3118 21010G18KT P6SM VCSH BKN060 OVC100
     FM302000 21012G20KT P6SM -SHRA VCTS BKN050CB OVC120
     FM302300 21010KT P6SM VCSH SCT050 OVC120
     FM310300 22008KT 5SM -SHRA BR OVC012
     FM310900 21006KT 3SM -SHRA BR OVC008
     FM311200 21008KT 5SM BR VCSH OVC012
     FM311400 21010KT P6SM VCSH BKN018 OVC250
     FM311600 21011KT P6SM -SHRA VCTS BKN035CB=



000
FTUS41 KILN 301500 AAA
TAFCVG
TAF AMD
KCVG 301501Z 3015/3118 22008KT P6SM SCT080 BKN200
     FM301800 22011G17KT P6SM BKN050 OVC250
     FM302300 21008KT P6SM VCTS SCT040CB BKN090 OVC250
     FM310100 17008KT P6SM -SHRA VCTS SCT020CB OVC080
     FM310900 18006KT 4SM -SHRA BR VCTS OVC015CB=



000
FTUS41 KILN 301100
TAFCMH
TAF
KCMH 301132Z 3012/3112 18007KT P6SM SCT250
     FM301800 21014G20KT P6SM SCT050 SCT150 BKN250
     FM302300 21011KT P6SM VCTS SCT040CB OVC120
     FM310500 20008KT P6SM -SHRA VCTS SCT030CB OVC120
     FM311000 20005KT P6SM -SHRA VCTS OVC025CB=



000
FTUS41 KILN 301100
TAFDAY
TAF
KDAY 301132Z 3012/3112 16007KT P6SM SCT200
     FM301500 21012G20KT P6SM SCT050 SCT120
     FM302000 21015KT P6SM VCTS SCT040CB BKN110
     FM310100 22011KT P6SM -SHRA VCTS SCT030CB OVC100
     FM310900 21010KT 5SM -SHRA BR VCTS OVC015CB=



000
FTUS41 KILN 301100
TAFILN
TAF
KILN 301132Z 3012/3112 18005KT P6SM BKN250
     FM301500 20009G16KT P6SM SCT050 SCT120 OVC250
     FM302200 21009KT P6SM VCTS SCT040CB BKN110 OVC250
     FM310300 20008KT P6SM -SHRA VCTS SCT020CB OVC100
     FM310900 20005KT 4SM -SHRA BR VCTS OVC015CB=



000
FTUS41 KILN 301100
TAFCVG
TAF
KCVG 301132Z 3012/3118 19008KT P6SM SCT250
     FM301600 21011G17KT P6SM SCT050 SCT100 OVC250
     FM302100 21008KT P6SM VCTS SCT040CB BKN090 OVC250
     FM310100 17008KT P6SM -SHRA VCTS SCT020CB OVC080
     FM310900 18006KT 4SM -SHRA BR VCTS OVC015CB=



000
FTUS41 KILN 301100
TAFLCK
TAF
KLCK 301132Z 3012/3112 18007KT P6SM SCT250
     FM301800 21012G18KT P6SM SCT050 SCT150 BKN250
     FM302300 21009KT P6SM VCTS SCT040CB OVC120
     FM310500 19005KT P6SM -SHRA VCTS SCT030CB OVC120
     FM311000 19006KT 5SM -SHRA BR VCTS OVC025CB=



000
FTUS41 KILN 301100
TAFLUK
TAF
KLUK 301132Z 3012/3112 20006KT P6SM SCT250
     FM301600 21012G18KT P6SM SCT050 SCT100 OVC250
     FM302100 21006KT P6SM VCTS SCT040CB BKN090 OVC250
     FM310300 21003KT P6SM -SHRA VCTS SCT020CB OVC080
     FM310900 00000KT 4SM -SHRA BR VCTS OVC015CB=



000
FTUS41 KILN 300900 AAA
TAFLUK
TAF AMD
KLUK 300915Z 3009/3106 00000KT 5SM BR SKC
      TEMPO 3009/3012 2SM BR
     FM301200 19008KT P6SM SCT060
     FM302000 21010G16KT P6SM SCT050
     FM302100 21010G17KT P6SM VCTS SCT040CB
     FM302300 21006KT P6SM VCSH SCT025 OVC120
      TEMPO 3023/3102 4SM -TSRA BR BKN025CB
     FM310200 17007KT 5SM -SHRA SCT020 OVC080=



000
FTUS41 KILN 300900 AAA
TAFCVG
TAF AMD
KCVG 300908Z 3009/3112 19008KT P6SM SKC
     FM301300 20010KT P6SM SCT060
     FM301600 21011G17KT P6SM SCT050
     FM302100 21008KT P6SM VCTS SCT040CB
     FM310200 17008KT P6SM -SHRA VCTS SCT020CB OVC080
     FM310900 18006KT 4SM -SHRA VCTS OVC015CB=



000
FTUS41 KILN 300500
TAFLCK
TAF
KLCK 300530Z 3006/3106 15004KT P6SM BKN100
     FM300800 16004KT P6SM SCT250
     FM301600 21010G15KT P6SM SCT050 BKN200
     FM302200 21013G19KT P6SM VCTS SCT040CB BKN060 OVC120
     FM310100 19005KT P6SM SCT050 OVC100=



000
FTUS41 KILN 300500
TAFCVG
TAF
KCVG 300530Z 3006/3112 16005KT P6SM SKC
     FM301100 19008KT P6SM SCT060
     FM301900 21010G16KT P6SM SCT050
     FM302000 21010G16KT P6SM VCTS SCT040CB
     FM302300 21006KT P6SM VCSH SCT025 OVC120
      TEMPO 3023/3102 4SM -TSRA BR BKN025CB
     FM310200 17008KT 5SM -SHRA SCT020 OVC080=



000
FTUS41 KILN 300500
TAFCMH
TAF
KCMH 300530Z 3006/3106 15006KT P6SM BKN110
     FM300800 16005KT P6SM SCT250
     FM301600 21010G15KT P6SM SCT050 BKN200
     FM302200 21014G20KT P6SM VCTS SCT040CB BKN060 OVC120
     FM310100 19008KT P6SM SCT050 OVC100=



000
FTUS41 KILN 300500
TAFLUK
TAF
KLUK 300530Z 3006/3106 23003KT P6SM SKC
     FM300900 00000KT 5SM BR SKC
      TEMPO 3010/3012 2SM BR
     FM301200 19008KT P6SM SCT060
     FM302000 21010G16KT P6SM SCT050
     FM302100 21010G17KT P6SM VCTS SCT040CB
     FM302300 21006KT P6SM VCSH SCT025 OVC120
      TEMPO 3023/3102 4SM -TSRA BR BKN025CB
     FM310200 17007KT 5SM -SHRA SCT020 OVC080=



000
FTUS41 KILN 300500
TAFDAY
TAF
KDAY 300530Z 3006/3106 16007KT P6SM SCT200
     FM301500 21012G20KT P6SM SCT045 BKN120
     FM302000 21015G21KT P6SM VCTS BKN040CB OVC120
     FM302300 22011KT P6SM SCT040 OVC100=



000
FTUS41 KILN 300500
TAFILN
TAF
KILN 300530Z 3006/3106 17005KT P6SM SKC
     FM301500 20009G16KT P6SM SCT045 BKN120
     FM302000 21012G19KT P6SM VCTS SCT040CB OVC120
     FM302300 22011KT P6SM SCT040 OVC100=



000
FTUS41 KILN 300100 AAA
TAFDAY
TAF AMD
KDAY 300156Z 3002/3024 15010G20KT 5SM -TSRA BKN050CB
     FM300220 17006KT P6SM SCT045 BKN200
     FM300400 17008KT P6SM SCT200
     FM301500 20010G16KT P6SM SCT045 BKN120
      TEMPO 3020/3022 -SHRA BKN040 OVC120
     FM302200 22011KT P6SM SCT040 OVC100=



000
FTUS41 KILN 292300
TAFLCK
TAF
KLCK 292340Z 3000/3024 12005KT P6SM SCT250
     FM300800 15004KT P6SM SCT050 BKN120
     FM301600 21010G15KT P6SM SCT050 BKN200
     FM302200 21009KT P6SM BKN060 OVC120=



000
FTUS41 KILN 292300
TAFDAY
TAF
KDAY 292340Z 3000/3024 15007KT P6SM SCT200
      TEMPO 3001/3002 20007KT 5SM -SHRA BKN040
     FM300200 17006KT P6SM SCT045 BKN200
     FM300400 17008KT P6SM SCT200
     FM301500 20010G16KT P6SM SCT045 BKN120
      TEMPO 3020/3022 -SHRA BKN040 OVC120
     FM302200 22011KT P6SM SCT040 OVC100=



000
FTUS41 KILN 292300
TAFLUK
TAF
KLUK 292340Z 3000/3024 18006KT P6SM VCSH SCT060 SCT200
     FM300100 00000KT P6SM SCT200
     FM301100 19008KT P6SM SCT060
     FM302000 21010G16KT P6SM VCSH BKN050
      TEMPO 3021/3023 -TSRA BKN040CB
     FM302300 21006KT P6SM VCSH SCT025 OVC120
      TEMPO 3023/3024 4SM -TSRA BR BKN025CB=



000
FTUS41 KILN 292300
TAFCVG
TAF
KCVG 292340Z 3000/3106 18005KT P6SM SCT060
     FM300300 16005KT P6SM SCT200
     FM301100 19008KT P6SM SCT060
     FM301900 21010G16KT P6SM VCSH BKN050
      TEMPO 3020/3022 -TSRA BKN040CB
     FM302300 21006KT P6SM VCSH SCT025 OVC120
      TEMPO 3023/3102 4SM -TSRA BR BKN025CB
     FM310200 17008KT 5SM -SHRA SCT020 OVC080=



000
FTUS41 KILN 292300
TAFILN
TAF
KILN 292340Z 3000/3024 15007KT P6SM SCT200
      TEMPO 3001/3002 20007KT 5SM -SHRA BKN040
     FM300200 17006KT P6SM SCT045 BKN200
     FM300400 17008KT P6SM SCT200
     FM301500 20009G16KT P6SM SCT045 BKN120
      TEMPO 3020/3022 -SHRA BKN040 OVC120
     FM302200 22011KT P6SM SCT040 OVC100=



000
FTUS41 KILN 292300
TAFCMH
TAF
KCMH 292340Z 3000/3024 12005KT P6SM SCT250
     FM300800 15004KT P6SM SCT050 BKN120
     FM301600 21010G15KT P6SM SCT050 BKN200
     FM302200 21009KT P6SM BKN060 OVC120=



000
FTUS41 KILN 292200 AAA
TAFLUK
TAF AMD
KLUK 292239Z 2923/3018 18006KT P6SM VCSH SCT060 BKN200
      TEMPO 2923/2924 5SM -TSRA BKN040CB
     FM300100 00000KT P6SM SCT050 BKN200
     FM300600 00000KT P6SM SCT200
      TEMPO 3007/3010 5SM BR
     FM301200 19005KT P6SM BKN060=



000
FTUS41 KILN 292100 AAA
TAFCVG
TAF AMD
KCVG 292103Z 2921/3024 18005KT P6SM SCT050
     FM300600 16005KT P6SM SKC
     FM301100 19008KT P6SM BKN060
     FM301800 21010G16KT P6SM VCSH BKN050
      TEMPO 3020/3022 -TSRA BKN040CB
     FM302300 21006KT P6SM VCSH SCT025 OVC120
      TEMPO 3023/3024 4SM -TSRA BR BKN025CB=



000
FTUS41 KILN 291700
TAFILN
TAF
KILN 291739Z 2918/3018 13007KT P6SM FEW060 SCT200
     FM300000 12006KT P6SM VCSH SCT050 BKN200
     FM300300 15005KT P6SM SCT050 BKN250
     FM301200 19007KT P6SM SCT050 BKN200
     FM301600 21010G18KT P6SM SCT050 BKN150=



000
FTUS41 KILN 291700
TAFCMH
TAF
KCMH 291739Z 2918/3018 13005KT P6SM FEW060 SCT250
     FM300900 15004KT P6SM SCT100 BKN200
     FM301500 20009KT P6SM SCT050 BKN200
     FM301700 21010G18KT P6SM SCT050 BKN200=



000
FTUS41 KILN 291700
TAFLUK
TAF
KLUK 291739Z 2918/3018 14008KT P6SM FEW050 SCT250
     FM292200 14004KT P6SM VCSH SCT060 BKN200
     FM300100 00000KT P6SM SCT050 BKN200
     FM300600 00000KT P6SM SCT200
      TEMPO 3007/3010 5SM BR
     FM301200 19005KT P6SM BKN060=



000
FTUS41 KILN 291700
TAFCVG
TAF
KCVG 291739Z 2918/3024 14008KT P6SM FEW050 SCT250
     FM292100 14007KT P6SM VCSH SCT050 BKN250
     FM300000 14005KT P6SM SCT050 BKN250
     FM300600 16005KT P6SM SCT200
     FM301200 19008KT P6SM BKN060
     FM301800 21010G18KT P6SM VCTS BKN050CB
     FM302300 21006KT P6SM VCSH SCT025 OVC120=



000
FTUS41 KILN 291700
TAFLCK
TAF
KLCK 291739Z 2918/3018 13005KT P6SM FEW060 SCT250
     FM300900 15004KT P6SM SCT100 BKN200
     FM301500 20009KT P6SM SCT050 BKN200
     FM301700 21010G18KT P6SM SCT050 BKN200=



000
FTUS41 KILN 291700
TAFDAY
TAF
KDAY 291739Z 2918/3018 14007KT P6SM FEW050 SCT200
     FM300200 14006KT P6SM VCSH SCT050 BKN200
     FM300400 17008KT P6SM SCT050 BKN200
     FM301500 20010G18KT P6SM SCT050 BKN150=



000
FTUS41 KILN 291400 AAA
TAFCVG
TAF AMD
KCVG 291458Z 2915/3018 14008KT P6SM FEW060 BKN200
     FM292100 14005KT P6SM VCSH SCT060 BKN200
     FM300000 13005KT P6SM SCT050 BKN200
     FM301300 20009KT P6SM BKN050
     FM301700 21010G18KT P6SM VCTS BKN050CB=



    US Dept of Commerce
    National Oceanic and Atmospheric Administration
    National Weather Service
    1325 East West Highway
    Silver Spring, MD 20910
    Page Author: NWS Internet Services Team
Disclaimer
Information Quality
Credits
Glossary
Privacy Policy
Freedom of Information Act (FOIA)
About Us
Career Opportunities